Αρχική σελίδα
METAR-TAF:

METAR-TAF

Αεροδρόμια :

Κουρασάο, Ολλανδικές Αντίλλες

γεωγραφικό πλάτος: 12-12N, γεωγραφικό μήκος: 068-58W, υψόμετρο: 9 μ

Παρών καιρός

Η αναφορά έγινε 30 λεπτά πριν, στις 03:00 UTC
Άνεμος 10 kt από ΝA
Θερμοκρασία 28°C
Υγρασία 70%
Πίεση 1014 hPa
Ορατότητα 10 χλμ και άνω

METAR: TNCC 200300Z AUTO 14010KT 9999 NCD 28/22 Q1014

Χρόνος: 23:30 (03:30 UTC)

Πρόγνωση Καιρού

Η αναφορά έγινε 5 ώρες και 30 λεπτά πριν, στις 22:00 UTC
Η πρόγνωση ισχύει από τις 20 στις 00 UTC έως τις 20 στις 24 UTC
Άνεμος 10 kt από Α
Ορατότητα 10 χλμ και άνω
Λίγα νέφη σε ύψος 2000 πόδια
Προσωρινά
από 20 στις 06 UTC έως τις 20 στις 12 UTC
Αρκετά νέφη σε ύψος 1400 πόδια

TAF: TNCC 192200Z 2000/2024 10010KT 9999 FEW020 TEMPO 2006/2012 BKN014

Μετεωρολογικές αναφορές και προγνώσεις για περισσότερα από 4000 αεροδρόμια (δελτία METAR και TAF).

Οι διαθέσιμοι σταθμοί απεικονίζονται στο χάρτη με κίτρινες και κόκκινες κουκκίδες.

Μετακινήστε το ποντίκι πάνω από τις κουκκίδες για να δείτε το όνομα του σταθμού.

Στη συνέχεια, κάντε κλικ για να δείτε τις μετεωρολογικές αναφορές και τις προγνώσεις καιρού.

Για να αλλάξετε το χάρτη: κάντε κλικ στα πράσινα κουμπιά με τον μαύρο σταυρό για να ζουμάρετε, στο πράσινο κουμπί με την παύλα για να αφαιρέσετε το ζουμ ή στα πράσινα βέλη για να αντιπαραβάλλετε χάρτες.


METAR-TAF: